createdAt,value
2022-11-30T00:10:02.031Z,29.80
2022-11-30T00:20:09.718Z,27.70
2022-11-30T00:30:17.418Z,24.50
2022-11-30T00:40:23.137Z,25.50
2022-11-30T00:50:28.812Z,22.40
2022-11-30T01:00:34.511Z,25.00
2022-11-30T01:10:41.825Z,24.70
2022-11-30T01:20:47.456Z,24.80
2022-11-30T01:31:00.813Z,25.50
2022-11-30T01:41:08.004Z,25.30
2022-11-30T01:51:13.638Z,24.90
2022-11-30T02:01:19.391Z,27.00
2022-11-30T02:11:28.319Z,28.50
2022-11-30T02:21:43.056Z,27.40
2022-11-30T02:31:56.365Z,27.40
2022-11-30T02:42:02.117Z,22.80
2022-11-30T02:52:10.354Z,25.20
2022-11-30T03:02:16.137Z,25.50
2022-11-30T03:12:21.802Z,28.80
2022-11-30T03:22:27.680Z,22.10
2022-11-30T03:32:33.245Z,23.20
2022-11-30T03:42:38.926Z,26.40
2022-11-30T03:52:44.607Z,24.60
2022-11-30T04:02:50.417Z,28.00
2022-11-30T04:12:56.134Z,24.60
2022-11-30T04:23:02.549Z,23.50
2022-11-30T04:33:08.636Z,16.30
2022-11-30T04:43:14.930Z,25.00
2022-11-30T05:03:24.824Z,21.00
2022-11-30T05:13:30.705Z,24.30
2022-11-30T05:23:36.422Z,22.30
2022-11-30T05:33:42.284Z,21.10
2022-11-30T05:43:48.163Z,20.00
2022-11-30T05:53:54.104Z,21.40
2022-11-30T06:04:03.517Z,21.70
2022-11-30T06:14:12.008Z,18.80
2022-11-30T06:24:17.781Z,19.10
2022-11-30T06:34:23.648Z,21.30
2022-11-30T06:44:29.274Z,22.50
2022-11-30T06:54:35.146Z,22.00
2022-11-30T07:04:40.960Z,20.20
2022-11-30T07:14:46.931Z,20.10
2022-11-30T07:25:10.122Z,20.00
2022-11-30T07:35:15.922Z,21.00
2022-11-30T07:45:21.740Z,20.30
2022-11-30T07:55:27.444Z,25.50
2022-11-30T08:05:33.203Z,21.70
2022-11-30T08:15:39.177Z,19.60
2022-11-30T08:25:47.814Z,22.70
2022-11-30T08:35:53.687Z,20.40
2022-11-30T08:45:59.597Z,19.70
2022-11-30T08:56:08.823Z,20.50
2022-11-30T09:06:16.781Z,18.80
2022-11-30T09:16:23.160Z,18.50
2022-11-30T09:26:29.249Z,17.80
2022-11-30T09:36:36.692Z,18.60
2022-11-30T09:46:48.749Z,17.20
2022-11-30T09:56:54.939Z,18.70
2022-11-30T10:07:11.032Z,17.40
2022-11-30T10:27:43.264Z,15.00
2022-11-30T10:37:51.433Z,17.20
2022-11-30T10:48:04.261Z,15.50
2022-11-30T10:58:20.720Z,18.10
2022-11-30T11:08:28.311Z,15.30
2022-11-30T11:18:35.180Z,14.30
2022-11-30T11:28:47.744Z,14.40
2022-11-30T11:38:53.565Z,15.00
2022-11-30T11:49:02.901Z,14.60
2022-11-30T11:59:19.065Z,14.60
2022-11-30T12:09:30.590Z,14.70
2022-11-30T12:19:43.988Z,13.40
2022-11-30T12:30:02.504Z,14.40
2022-11-30T12:40:24.601Z,12.80
2022-11-30T12:50:47.121Z,13.30
2022-11-30T13:01:09.229Z,11.30
2022-11-30T13:11:19.541Z,12.20
2022-11-30T13:21:31.536Z,12.20
2022-11-30T13:31:42.324Z,11.30
2022-11-30T13:41:50.609Z,14.30
2022-11-30T13:52:21.402Z,11.90
2022-11-30T14:02:54.256Z,13.00
2022-11-30T14:13:03.083Z,14.80
2022-11-30T14:23:13.182Z,15.80
2022-11-30T14:33:25.188Z,12.30
2022-11-30T14:43:31.435Z,14.10
2022-11-30T14:53:45.406Z,13.20
2022-11-30T15:03:53.804Z,12.50
2022-11-30T15:14:11.691Z,11.30
2022-11-30T15:24:18.075Z,14.10
2022-11-30T15:34:32.975Z,13.10
2022-11-30T15:44:45.639Z,11.80
2022-11-30T15:54:55.216Z,14.10
2022-11-30T16:05:23.745Z,12.50
2022-11-30T16:15:35.038Z,14.50
2022-11-30T16:25:41.104Z,10.40
2022-11-30T16:35:54.490Z,12.00
2022-11-30T16:46:02.875Z,15.30
2022-11-30T16:56:13.122Z,15.30
2022-11-30T17:06:22.060Z,14.00
2022-11-30T17:16:28.241Z,12.20
2022-11-30T17:26:34.749Z,13.40
2022-11-30T17:36:40.893Z,11.30
2022-11-30T17:46:58.592Z,14.10
2022-11-30T17:57:05.248Z,12.40
2022-11-30T18:07:14.097Z,13.80
2022-11-30T18:17:23.088Z,12.70
2022-11-30T18:27:32.233Z,14.00
2022-11-30T18:47:44.810Z,14.30
2022-11-30T18:57:52.098Z,14.20
2022-11-30T19:07:58.752Z,14.00
2022-11-30T19:18:05.850Z,16.10
2022-11-30T19:28:14.728Z,15.30
2022-11-30T19:38:24.915Z,14.40
2022-11-30T19:48:31.547Z,15.50
2022-11-30T19:58:51.506Z,14.20
2022-11-30T20:09:00.472Z,16.10
2022-11-30T20:19:26.750Z,14.40
2022-11-30T20:29:43.103Z,15.10
2022-11-30T20:40:12.206Z,14.90
2022-11-30T20:50:38.014Z,13.70
2022-11-30T21:00:51.086Z,17.50
2022-11-30T21:11:06.153Z,15.80
2022-11-30T21:21:33.727Z,15.20
2022-11-30T21:31:45.327Z,13.80
2022-11-30T21:42:10.880Z,16.10
2022-11-30T21:52:17.639Z,17.80
2022-11-30T22:02:43.648Z,14.90
2022-11-30T22:13:00.819Z,14.80
2022-11-30T22:23:14.878Z,14.60
2022-11-30T22:33:41.707Z,14.30
2022-11-30T22:43:49.216Z,13.70
2022-11-30T22:54:05.267Z,13.30
2022-11-30T23:04:14.596Z,13.10
2022-11-30T23:14:40.341Z,12.30
2022-11-30T23:25:02.260Z,12.70
2022-11-30T23:35:28.065Z,12.30
2022-11-30T23:45:34.776Z,12.10
2022-11-30T23:56:05.548Z,14.10
